Arlington, Illinois
Current Conditions -  °F | °C
As of 10:55 PM on Wednesday 22 Oct 2014 (Local Time) from KVYS Reporting Station
Clear Clear  
Wind Chill: 40°   Ceiling: Unl
Heat Index: 44°   Visibility: 10mi
Dew Point: 36°   Wind: 7mph
Humidity: 74%   Direction: 130°SE
Pressure: 30.27"   Gusts: NA
Location:  41.47°N, 89.25°W
Report Text: KVYS 230355Z AUTO 13006KT 10SM CLR 07/02 A3027 RMK AO2 T00650021
Loading
Personal Weather Stations






























Interactive Weather Map New forecast layout! Learn more

10-Day Weather Forecast

Advertisements
Track Severe Weather on mobile